Nearby METARS Reports

 

LFML - Marseille/Marign, France
Distance from station: O 47km
Mise à jour: 16/12/2018 21:00
Pluie, Mist, Thunderstorm
Pluie, Mist, Thunderstorm
 Wind from OSO
Vent: OSO 6 km/h
Température: 8°C
Point de rosée: 7°C
Humidité: 93%
Baromètre: 1015 hPa
Résumé: Pluie, Mist
Clouds: Thunderstorm
Visibility: 4 km
Cloud details: peu nuageux 640 m
nuageux 1707 m
nuageux 2012 m
2018/12/16 20:00 LFML 162000Z AUTO 24003KT 4300 RA BR FEW021/// BKN056/// BKN066/// ///TCU 08/07 Q1015 BECMG 32012KT CAVOK
LFMC - Le Luc/Le Cannet, France
Distance from station: ESE 48km
Mise à jour: 16/12/2018 21:00

 Wind from varies
Vent: varies 6 km/h
Température: 7°C
Point de rosée: 7°C
Humidité: 100%
Baromètre: 1014 hPa
Visibility: 9 km
2018/12/16 20:00 LFMC 162000Z AUTO VRB03KT 9000 // ////// 07/07 Q1014
LFTH - Hyeres/Le Palyve, France
Distance from station: SSE 53km
Mise à jour: 16/12/2018 21:00
couvert
couvert
 Wind from ENE
Vent: ENE 7 km/h
Température: 8°C
Wind Chill: 7°C
Point de rosée: 7°C
Humidité: 93%
Baromètre: 1014 hPa
Clouds: couvert
Visibility: 9 km
Cloud details: peu nuageux 213 m
partiellement nuageux 2316 m
couvert 2926 m
2018/12/16 20:00 LFTH 162000Z AUTO 07004KT 9000 FEW007 SCT076 OVC096 08/07 Q1014 TEMPO 4000 -RA BR SCT005 BKN030TCU